Time;durP1;ratioP1;P1;durP2;ratioP2;P2;SDS_P1;SDS_P2;PMS_P1;PMS_P2;Temp;Humidity;BMP_temperature;BMP_pressure;BME280_temperature;BME280_humidity;BME280_pressure;Samples;Min_cycle;Max_cycle;Signal;HPM_P1;HPM_P2
2023/02/14 00:00:34;;;;;;;44.17;23.08;;;0.60;33.20;;;;;;7382292;19;20022;-75
2023/02/14 00:03:04;;;;;;;45.83;21.70;;;0.50;33.10;;;;;;7362723;19;20022;-74
2023/02/14 00:05:34;;;;;;;40.28;19.92;;;0.40;33.20;;;;;;7363504;19;20014;-74
2023/02/14 00:08:04;;;;;;;41.45;22.08;;;0.40;33.70;;;;;;7363882;19;20017;-76
2023/02/14 00:10:33;;;;;;;43.53;22.20;;;0.50;34.30;;;;;;7362959;19;20539;-75
2023/02/14 00:13:03;;;;;;;41.97;21.48;;;0.50;34.30;;;;;;7363923;19;20360;-74
2023/02/14 00:15:33;;;;;;;41.67;21.08;;;0.50;34.30;;;;;;7385346;19;20018;-75
2023/02/14 00:18:05;;;;;;;47.92;22.77;;;0.50;34.30;;;;;;7362523;19;20230;-75
2023/02/14 00:20:35;;;;;;;40.10;20.77;;;0.50;34.30;;;;;;7362232;19;20011;-75
2023/02/14 00:23:05;;;;;;;43.42;21.50;;;0.50;34.00;;;;;;7359456;19;20018;-76
2023/02/14 00:25:35;;;;;;;46.60;21.75;;;0.60;34.30;;;;;;7362369;19;20007;-74
2023/02/14 00:28:05;;;;;;;46.42;22.60;;;0.50;33.60;;;;;;7363593;19;20802;-74
2023/02/14 00:30:38;;;;;;;39.38;22.20;;;0.50;33.40;;;;;;7386564;19;20344;-74
2023/02/14 00:33:08;;;;;;;47.95;23.27;;;0.50;33.30;;;;;;7362013;19;20014;-74
2023/02/14 00:35:39;;;;;;;44.85;22.50;;;0.50;33.20;;;;;;7362162;19;20045;-74
2023/02/14 00:38:09;;;;;;;43.90;22.88;;;0.50;33.10;;;;;;7362717;19;20010;-74
2023/02/14 00:40:38;;;;;;;41.58;23.15;;;0.50;32.70;;;;;;7363922;19;20014;-74
2023/02/14 00:43:08;;;;;;;41.92;21.52;;;0.30;32.40;;;;;;7360950;19;20014;-75
2023/02/14 00:45:41;;;;;;;46.35;24.10;;;0.30;32.70;;;;;;7383644;19;20010;-74
2023/02/14 00:48:11;;;;;;;41.97;22.35;;;0.30;33.60;;;;;;7362466;19;20467;-75
2023/02/14 00:50:41;;;;;;;41.80;22.38;;;0.30;33.40;;;;;;7364258;19;20018;-75
2023/02/14 00:53:10;;;;;;;43.70;23.20;;;0.30;33.40;;;;;;7362066;19;20017;-74
2023/02/14 00:55:41;;;;;;;44.75;22.55;;;0.30;34.20;;;;;;7362956;19;20032;-74
2023/02/14 00:58:10;;;;;;;50.15;24.50;;;0.40;34.20;;;;;;7363311;19;20042;-74
2023/02/14 01:00:43;;;;;;;48.13;25.10;;;0.50;34.30;;;;;;7384998;19;20021;-74
2023/02/14 01:03:13;;;;;;;45.42;23.88;;;0.40;33.10;;;;;;7359416;19;20034;-73
2023/02/14 01:05:43;;;;;;;43.90;23.27;;;0.40;33.30;;;;;;7361183;19;20106;-74
2023/02/14 01:08:12;;;;;;;44.85;22.60;;;0.40;33.20;;;;;;7362037;19;20017;-74
2023/02/14 01:10:43;;;;;;;42.75;24.60;;;0.40;33.00;;;;;;7361304;19;20526;-75
2023/02/14 01:13:13;;;;;;;50.28;24.05;;;0.30;32.90;;;;;;7361961;19;20010;-75
2023/02/14 01:15:48;;;;;;;46.47;22.13;;;0.30;32.80;;;;;;7382906;19;20508;-75
2023/02/14 01:18:20;;;;;;;46.05;25.42;;;0.30;32.70;;;;;;7361057;19;20011;-75
2023/02/14 01:20:50;;;;;;;49.28;23.75;;;0.30;32.60;;;;;;7360402;19;20024;-75
2023/02/14 01:23:20;;;;;;;48.30;23.98;;;0.30;32.80;;;;;;7359979;19;20038;-74
2023/02/14 01:25:49;;;;;;;49.40;23.63;;;0.30;32.90;;;;;;7361050;19;20018;-74
2023/02/14 01:28:19;;;;;;;45.38;23.98;;;0.30;32.90;;;;;;7361456;19;20014;-74
2023/02/14 01:30:51;;;;;;;41.67;22.70;;;0.30;33.00;;;;;;7363224;19;20018;-74
2023/02/14 01:33:21;;;;;;;41.05;20.85;;;0.30;33.10;;;;;;7382118;19;20019;-74
2023/02/14 01:35:51;;;;;;;42.78;22.40;;;0.30;33.10;;;;;;7359674;19;20525;-74
2023/02/14 01:38:21;;;;;;;45.22;21.92;;;0.20;32.90;;;;;;7361128;19;20450;-75
2023/02/14 01:40:51;;;;;;;44.60;23.05;;;0.20;32.90;;;;;;7361261;19;20509;-74
2023/02/14 01:43:20;;;;;;;44.67;22.77;;;0.20;33.10;;;;;;7361365;19;20371;-75
2023/02/14 01:45:53;;;;;;;46.10;22.48;;;0.20;33.20;;;;;;7363840;19;20021;-74
2023/02/14 01:48:25;;;;;;;42.10;21.83;;;0.20;34.10;;;;;;7381550;19;20006;-74
2023/02/14 01:50:57;;;;;;;45.30;22.45;;;0.20;34.10;;;;;;7360150;19;20025;-75
2023/02/14 01:53:30;;;;;;;44.13;23.02;;;0.20;34.00;;;;;;7360351;19;20089;-75
2023/02/14 01:56:04;;;;;;;43.75;23.42;;;0.20;34.00;;;;;;7362879;19;20086;-74
2023/02/14 01:58:36;;;;;;;;;;;0.20;33.60;;;;;;7361065;19;20026;-74
2023/02/14 02:01:09;;;;;;;49.10;23.50;;;0.10;33.30;;;;;;7360139;19;19924;-75
2023/02/14 02:03:43;;;;;;;47.13;24.42;;;0.20;33.10;;;;;;7379441;19;20022;-74
2023/02/14 02:06:16;;;;;;;50.22;25.17;;;0.20;33.20;;;;;;7359878;19;20081;-73
2023/02/14 02:08:53;;;;;;;50.00;25.58;;;0.20;33.00;;;;;;7359845;19;20094;-73
2023/02/14 02:11:23;;;;;;;50.58;25.27;;;0.20;32.50;;;;;;7358779;19;20066;-74
2023/02/14 02:13:53;;;;;;;47.70;24.42;;;0.20;32.80;;;;;;7359341;19;20017;-75
2023/02/14 02:16:51;;;;;;;44.95;24.23;;;0.10;32.40;;;;;;7358711;19;20014;-75
2023/02/14 02:19:58;;;;;;;47.53;24.48;;;0.10;32.30;;;;;;7359273;19;20010;-74
2023/02/14 02:23:00;;;;;;;48.67;24.65;;;0.00;31.80;;;;;;7356684;19;20010;-74
2023/02/14 02:25:54;;;;;;;47.20;25.33;;;-0.10;32.20;;;;;;7357604;19;20019;-74
2023/02/14 02:29:01;;;;;;;46.17;25.15;;;-0.10;32.50;;;;;;7359272;19;20014;-74
2023/02/14 02:32:05;;;;;;;44.50;23.75;;;-0.20;32.20;;;;;;7358689;19;20631;-73
2023/02/14 02:35:05;;;;;;;44.08;24.33;;;-0.20;33.70;;;;;;7358761;19;20505;-75
2023/02/14 02:37:47;;;;;;;48.72;23.70;;;-0.20;33.70;;;;;;7357566;19;20505;-74
2023/02/14 02:40:30;;;;;;;45.85;23.95;;;-0.10;33.80;;;;;;7358442;19;20011;-74
2023/02/14 02:43:10;;;;;;;47.47;24.02;;;-0.20;33.70;;;;;;7360717;19;20025;-74
2023/02/14 02:48:37;;;;;;;46.63;24.10;;;-0.20;33.70;;;;;;7365701;19;20358;-74
2023/02/14 02:54:08;;;;;;;50.95;26.02;;;-0.20;33.80;;;;;;7365189;19;20025;-75
2023/02/14 02:56:54;;;;;;;46.10;23.25;;;-0.20;33.70;;;;;;7367237;19;20014;-75
2023/02/14 02:59:28;;;;;;;49.10;24.40;;;-0.20;33.70;;;;;;7366162;19;20013;-75
2023/02/14 03:02:04;;;;;;;51.15;25.73;;;-0.20;33.70;;;;;;7365001;19;20020;-75
2023/02/14 03:10:09;;;;;;;45.03;24.45;;;-0.40;33.60;;;;;;7366534;19;20042;-74
2023/02/14 03:12:58;;;;;;;49.78;26.50;;;-0.40;33.60;;;;;;7386645;19;20085;-74
2023/02/14 03:15:42;;;;;;;53.03;26.13;;;-0.40;33.60;;;;;;7364785;19;20018;-74
2023/02/14 03:18:21;;;;;;;45.28;24.90;;;-0.50;33.50;;;;;;7365338;19;20036;-74
2023/02/14 03:20:53;;;;;;;46.60;24.80;;;-0.50;33.50;;;;;;7368020;19;20092;-74
2023/02/14 03:23:28;;;;;;;50.63;25.73;;;-0.50;33.70;;;;;;7362721;19;20015;-74
2023/02/14 03:26:11;;;;;;;50.47;24.92;;;-0.60;33.70;;;;;;7365090;19;20038;-75
2023/02/14 03:28:49;;;;;;;48.05;25.60;;;-0.60;33.70;;;;;;7365031;19;20015;-74
2023/02/14 03:31:30;;;;;;;52.25;25.33;;;-0.60;34.20;;;;;;7364646;19;20006;-74
2023/02/14 03:34:05;;;;;;;50.72;25.70;;;-0.60;34.00;;;;;;7364120;19;20018;-74
2023/02/14 03:36:41;;;;;;;48.20;26.50;;;-0.60;33.90;;;;;;7387019;19;20052;-73
2023/02/14 03:39:17;;;;;;;45.38;24.65;;;-0.60;34.40;;;;;;7365148;19;20022;-73
2023/02/14 03:41:55;;;;;;;48.40;25.17;;;-0.60;34.30;;;;;;7363917;19;20071;-74
2023/02/14 03:44:28;;;;;;;51.42;25.92;;;-0.60;34.20;;;;;;7363682;19;20017;-74
2023/02/14 03:47:02;;;;;;;45.05;24.58;;;-0.60;34.50;;;;;;7364259;19;20011;-74
2023/02/14 03:49:35;;;;;;;;;;;-0.60;34.50;;;;;;7366082;19;20031;-74
2023/02/14 03:52:07;;;;;;;53.00;25.05;;;-0.60;35.30;;;;;;7364144;19;19915;-75
2023/02/14 03:54:37;;;;;;;49.97;25.63;;;-0.60;34.80;;;;;;7386476;19;20022;-74
2023/02/14 03:57:16;;;;;;;50.85;27.40;;;-0.70;34.70;;;;;;7366320;19;20029;-75
2023/02/14 03:59:46;;;;;;;47.20;24.65;;;-0.70;35.20;;;;;;7364701;19;20044;-75
2023/02/14 04:02:21;;;;;;;49.67;25.13;;;-0.60;35.40;;;;;;7363311;19;20398;-75
2023/02/14 04:04:54;;;;;;;49.80;25.00;;;-0.70;35.40;;;;;;7362679;19;20512;-75
2023/02/14 04:07:25;;;;;;;51.17;26.00;;;-0.70;35.50;;;;;;7362179;19;20017;-73
2023/02/14 04:09:54;;;;;;;53.35;25.40;;;-0.60;36.30;;;;;;7365003;19;20025;-75
2023/02/14 04:12:27;;;;;;;47.95;25.48;;;-0.60;36.40;;;;;;7384880;19;20014;-73
2023/02/14 04:15:07;;;;;;;51.67;25.63;;;-0.60;36.30;;;;;;7362721;19;20522;-75
2023/02/14 04:20:20;;;;;;;51.05;25.35;;;-0.70;36.50;;;;;;7364391;19;20040;-74
2023/02/14 04:22:50;;;;;;;53.28;26.90;;;-0.70;36.70;;;;;;7362626;19;20411;-74
2023/02/14 04:25:21;;;;;;;51.15;25.95;;;-0.80;36.70;;;;;;7362930;19;20097;-74
2023/02/14 04:27:53;;;;;;;48.90;25.75;;;-0.70;37.10;;;;;;7362949;19;20021;-74
2023/02/14 04:30:23;;;;;;;47.47;24.33;;;-0.80;36.90;;;;;;7383837;19;20014;-74
2023/02/14 04:32:53;;;;;;;45.08;23.85;;;-0.70;37.50;;;;;;7363859;19;20376;-75
2023/02/14 04:35:23;;;;;;;50.85;28.10;;;-0.70;37.90;;;;;;7364215;19;20466;-74
2023/02/14 04:37:53;;;;;;;44.72;24.52;;;-0.70;37.00;;;;;;7362275;19;20039;-73
2023/02/14 04:40:23;;;;;;;53.60;27.48;;;-0.60;37.30;;;;;;7361638;19;20026;-74
2023/02/14 04:42:55;;;;;;;42.53;22.95;;;-0.60;37.00;;;;;;7362755;19;20018;-74
2023/02/14 04:45:25;;;;;;;46.95;24.48;;;-0.60;36.60;;;;;;7381510;19;20015;-74
2023/02/14 04:47:55;;;;;;;43.05;22.70;;;-0.70;36.20;;;;;;7361621;19;20086;-75
2023/02/14 04:50:25;;;;;;;45.35;22.98;;;-0.60;36.20;;;;;;7363306;19;20021;-74
2023/02/14 04:52:55;;;;;;;43.75;22.92;;;-0.60;36.60;;;;;;7362357;19;20010;-75
2023/02/14 04:55:25;;;;;;;47.05;24.13;;;-0.60;35.60;;;;;;7364435;19;20014;-75
2023/02/14 04:57:57;;;;;;;42.80;23.05;;;-0.60;35.20;;;;;;7365051;19;20011;-74
2023/02/14 05:00:27;;;;;;;47.30;24.48;;;-0.60;35.20;;;;;;7383054;19;20090;-74
2023/02/14 05:02:57;;;;;;;45.80;25.27;;;-0.60;34.50;;;;;;7361613;19;20006;-74
2023/02/14 05:05:27;;;;;;;42.15;22.27;;;-0.70;33.90;;;;;;7361503;19;20006;-74
2023/02/14 05:07:57;;;;;;;44.05;23.75;;;-0.70;33.30;;;;;;7361564;19;20038;-75
2023/02/14 05:10:28;;;;;;;42.78;22.85;;;-0.70;33.30;;;;;;7360272;19;20026;-74
2023/02/14 05:13:00;;;;;;;44.28;22.48;;;-0.80;33.30;;;;;;7361405;19;20039;-75
2023/02/14 05:15:30;;;;;;;45.58;23.50;;;-0.80;33.30;;;;;;7382827;19;20018;-73
2023/02/14 05:18:01;;;;;;;43.50;22.05;;;-0.90;33.30;;;;;;7361723;19;20021;-74
2023/02/14 05:20:31;;;;;;;40.40;20.30;;;-0.80;34.40;;;;;;7363058;19;20052;-74
2023/02/14 05:23:04;;;;;;;41.17;21.27;;;-0.80;34.20;;;;;;7360975;19;20473;-76
2023/02/14 05:25:34;;;;;;;50.58;23.98;;;-0.80;34.60;;;;;;7360223;19;20074;-74
2023/02/14 05:28:06;;;;;;;45.80;24.70;;;-0.80;34.40;;;;;;7360460;19;20010;-73
2023/02/14 05:30:36;;;;;;;47.15;23.25;;;-0.80;34.50;;;;;;7383267;19;20018;-74
2023/02/14 05:33:06;;;;;;;45.47;24.33;;;-0.80;34.60;;;;;;7360534;19;20021;-75
2023/02/14 05:35:36;;;;;;;45.83;23.65;;;-0.80;34.50;;;;;;7360923;19;20017;-75
2023/02/14 05:38:06;;;;;;;44.35;22.67;;;-0.80;34.90;;;;;;7360296;19;20021;-75
2023/02/14 05:40:36;;;;;;;45.97;23.23;;;-0.80;34.80;;;;;;7360135;19;20018;-74
2023/02/14 05:43:09;;;;;;;42.03;22.98;;;-0.80;35.10;;;;;;7361047;19;20114;-74
2023/02/14 05:45:38;;;;;;;41.97;22.67;;;-0.70;34.60;;;;;;7380338;19;20025;-74
2023/02/14 05:48:08;;;;;;;42.72;22.13;;;-0.80;34.30;;;;;;7360148;19;20018;-75
2023/02/14 05:50:38;;;;;;;45.15;23.52;;;-0.90;34.00;;;;;;7361190;19;20533;-74
2023/02/14 05:53:08;;;;;;;45.13;22.55;;;-0.80;34.40;;;;;;7360489;19;20351;-75
2023/02/14 05:55:38;;;;;;;47.30;23.23;;;-0.80;33.90;;;;;;7362601;19;20046;-75
2023/02/14 05:58:11;;;;;;;43.95;22.90;;;-0.80;34.80;;;;;;7360402;19;20057;-74
2023/02/14 06:00:40;;;;;;;44.65;22.55;;;-0.80;34.50;;;;;;7381489;19;20021;-76
2023/02/14 06:03:10;;;;;;;41.83;22.60;;;-0.80;34.10;;;;;;7359234;19;20074;-74
2023/02/14 06:05:40;;;;;;;46.85;24.42;;;-0.80;34.30;;;;;;7357688;19;20015;-74
2023/02/14 06:08:10;;;;;;;46.25;23.98;;;-0.70;34.40;;;;;;7360480;19;20010;-75
2023/02/14 06:10:40;;;;;;;44.90;23.00;;;-0.80;34.10;;;;;;7359739;19;20011;-74
2023/02/14 06:13:12;;;;;;;45.80;23.85;;;-0.80;34.80;;;;;;7359084;19;20018;-74
2023/02/14 06:15:42;;;;;;;43.03;22.20;;;-0.70;34.80;;;;;;7380538;19;20018;-75
2023/02/14 06:18:12;;;;;;;44.28;22.83;;;-0.80;33.30;;;;;;7360504;19;20013;-73
2023/02/14 06:20:42;;;;;;;48.75;23.88;;;-0.90;33.60;;;;;;7359780;19;20010;-74
2023/02/14 06:23:12;;;;;;;42.13;22.38;;;-0.80;34.00;;;;;;7365971;19;20018;-74
2023/02/14 06:25:42;;;;;;;41.45;22.20;;;-0.80;34.20;;;;;;7368472;19;20478;-75
2023/02/14 06:28:14;;;;;;;46.58;24.13;;;-0.80;33.60;;;;;;7368783;19;20015;-74
2023/02/14 06:30:44;;;;;;;46.30;22.23;;;-0.80;33.30;;;;;;7385011;19;20018;-75
2023/02/14 06:33:14;;;;;;;40.92;21.63;;;-0.70;33.60;;;;;;7365704;19;20017;-76
2023/02/14 06:35:44;;;;;;;41.05;22.33;;;-0.70;33.30;;;;;;7365916;19;20086;-76
2023/02/14 06:38:14;;;;;;;43.20;22.00;;;-0.70;33.30;;;;;;7367093;19;20130;-75
2023/02/14 06:40:44;;;;;;;43.42;22.33;;;-0.60;33.40;;;;;;7363789;19;20011;-74
2023/02/14 06:43:16;;;;;;;44.85;23.40;;;-0.60;33.40;;;;;;7365993;19;20042;-74
2023/02/14 06:45:47;;;;;;;41.83;22.20;;;-0.50;32.90;;;;;;7381787;19;20016;-75
2023/02/14 06:48:17;;;;;;;42.45;21.40;;;-0.40;32.10;;;;;;7387309;19;20038;-74
2023/02/14 06:50:48;;;;;;;41.05;21.35;;;-0.40;31.70;;;;;;7365818;19;20010;-75
2023/02/14 06:53:18;;;;;;;40.30;21.60;;;-0.40;30.40;;;;;;7365202;19;20014;-71
2023/02/14 06:55:48;;;;;;;39.40;20.95;;;-0.40;30.30;;;;;;7361039;19;20024;-74
2023/02/14 06:58:20;;;;;;;41.35;21.45;;;-0.30;30.00;;;;;;7365409;19;20028;-75
2023/02/14 07:00:51;;;;;;;41.65;21.58;;;-0.30;29.70;;;;;;7364675;19;20026;-74
2023/02/14 07:03:20;;;;;;;40.50;20.55;;;-0.30;29.70;;;;;;7387666;19;20110;-73
2023/02/14 07:05:50;;;;;;;36.08;19.27;;;-0.30;29.10;;;;;;7362487;19;20014;-75
2023/02/14 07:08:20;;;;;;;40.05;19.88;;;-0.30;28.70;;;;;;7365335;19;20015;-74
2023/02/14 07:10:50;;;;;;;41.67;20.88;;;-0.20;28.40;;;;;;7364669;19;20021;-73
2023/02/14 07:13:22;;;;;;;42.85;21.63;;;-0.20;28.00;;;;;;7366820;19;20018;-75
2023/02/14 07:15:52;;;;;;;38.67;20.75;;;-0.20;27.90;;;;;;7366557;19;20778;-75
2023/02/14 07:18:22;;;;;;;35.38;19.55;;;-0.10;27.60;;;;;;7386527;19;20042;-74
2023/02/14 07:20:52;;;;;;;37.92;19.80;;;-0.10;27.20;;;;;;7363078;19;20014;-74
2023/02/14 07:23:22;;;;;;;37.42;20.83;;;-0.10;26.50;;;;;;7366625;19;20014;-75
2023/02/14 07:25:51;;;;;;;40.95;21.73;;;-0.10;26.30;;;;;;7364558;19;20018;-74
2023/02/14 07:28:24;;;;;;;39.28;20.08;;;0.00;26.10;;;;;;7361531;19;20010;-74
2023/02/14 07:30:54;;;;;;;37.00;19.63;;;0.00;25.80;;;;;;7363043;19;20027;-74
2023/02/14 07:33:24;;;;;;;40.22;19.98;;;0.10;25.40;;;;;;7384362;19;20022;-74
2023/02/14 07:35:54;;;;;;;40.10;20.77;;;0.20;25.50;;;;;;7363207;19;20022;-73
2023/02/14 07:38:23;;;;;;;34.92;19.25;;;0.20;24.60;;;;;;7364342;19;20028;-74
2023/02/14 07:40:55;;;;;;;39.28;20.55;;;0.20;23.40;;;;;;7364808;19;20032;-74
2023/02/14 07:43:28;;;;;;;38.05;20.23;;;0.30;23.40;;;;;;7363472;19;20018;-75
2023/02/14 07:45:57;;;;;;;39.05;20.40;;;0.30;23.40;;;;;;7362823;19;20026;-75
2023/02/14 07:48:27;;;;;;;38.42;19.98;;;0.30;22.90;;;;;;7385670;19;20405;-74
2023/02/14 07:51:01;;;;;;;38.50;20.60;;;0.40;23.50;;;;;;7364415;19;20021;-74
2023/02/14 07:53:35;;;;;;;41.50;20.27;;;0.50;23.40;;;;;;7361704;19;20405;-73
2023/02/14 07:56:05;;;;;;;37.53;19.73;;;0.60;23.50;;;;;;7364157;19;20035;-74
2023/02/14 07:58:37;;;;;;;42.40;20.85;;;0.70;22.80;;;;;;7363719;19;20464;-74
2023/02/14 08:01:08;;;;;;;37.38;19.77;;;0.70;21.40;;;;;;7364229;19;20818;-75
2023/02/14 08:03:37;;;;;;;36.35;19.27;;;0.70;21.60;;;;;;7385750;19;20064;-74
2023/02/14 08:06:07;;;;;;;34.35;19.17;;;0.80;21.00;;;;;;7360713;19;20053;-76
2023/02/14 08:08:37;;;;;;;37.67;17.77;;;0.80;20.70;;;;;;7363026;19;20006;-74
2023/02/14 08:11:07;;;;;;;35.17;18.23;;;0.90;20.40;;;;;;7366998;19;20086;-73
2023/02/14 08:13:40;;;;;;;33.17;17.75;;;0.90;19.00;;;;;;7362520;19;20014;-74
2023/02/14 08:16:11;;;;;;;37.30;18.02;;;1.00;19.50;;;;;;7363694;19;20053;-74
2023/02/14 08:18:44;;;;;;;35.78;18.35;;;1.00;18.20;;;;;;7384384;19;20047;-75
2023/02/14 08:21:16;;;;;;;32.42;16.85;;;1.10;17.90;;;;;;7364340;19;20006;-75
2023/02/14 08:23:45;;;;;;;35.83;19.00;;;1.10;17.20;;;;;;7364435;19;20070;-74
2023/02/14 08:26:16;;;;;;;34.67;17.17;;;1.20;17.20;;;;;;7364340;19;20037;-75
2023/02/14 08:28:48;;;;;;;33.67;16.75;;;1.30;17.10;;;;;;7363821;19;20129;-74
2023/02/14 08:31:25;;;;;;;35.53;18.42;;;1.40;16.00;;;;;;7365228;19;20018;-74
2023/02/14 08:34:05;;;;;;;37.08;20.10;;;1.30;15.60;;;;;;7361995;19;20025;-73
2023/02/14 08:36:35;;;;;;;31.05;17.90;;;1.50;15.40;;;;;;7384050;19;20017;-74
2023/02/14 08:39:06;;;;;;;31.27;16.55;;;1.60;14.00;;;;;;7362956;19;20073;-75
2023/02/14 08:41:37;;;;;;;31.65;17.58;;;1.50;13.20;;;;;;7364078;19;20081;-74
2023/02/14 08:44:10;;;;;;;31.15;17.23;;;1.40;13.80;;;;;;7359933;19;20094;-75
2023/02/14 08:46:40;;;;;;;33.63;16.45;;;1.50;13.30;;;;;;7361386;19;20018;-74
2023/02/14 08:49:11;;;;;;;37.40;18.33;;;1.60;13.40;;;;;;7362535;19;20071;-75
2023/02/14 08:51:41;;;;;;;31.48;17.98;;;1.70;13.40;;;;;;7385927;19;20018;-75
2023/02/14 08:54:10;;;;;;;35.10;17.20;;;1.90;12.60;;;;;;7362296;19;20107;-74
2023/02/14 08:56:41;;;;;;;32.60;17.80;;;1.90;10.60;;;;;;7362566;19;20022;-75
2023/02/14 08:59:13;;;;;;;32.33;17.80;;;1.70;10.50;;;;;;7363096;19;20093;-73
2023/02/14 09:01:43;;;;;;;32.92;17.80;;;1.80;10.50;;;;;;7362108;19;20014;-73
2023/02/14 09:04:13;;;;;;;33.75;17.85;;;1.90;10.60;;;;;;7361534;19;20010;-73
2023/02/14 09:06:43;;;;;;;29.95;17.35;;;2.00;9.70;;;;;;7381170;19;20015;-74
2023/02/14 09:09:13;;;;;;;33.22;16.83;;;2.10;8.60;;;;;;7362197;19;20524;-73
2023/02/14 09:11:42;;;;;;;31.25;16.90;;;2.30;8.20;;;;;;7362273;19;20010;-71
2023/02/14 09:14:15;;;;;;;33.67;17.33;;;2.30;6.90;;;;;;7363224;19;20018;-67
2023/02/14 09:16:45;;;;;;;34.50;17.55;;;2.10;8.20;;;;;;7358549;19;20359;-67
2023/02/14 09:19:14;;;;;;;34.10;17.85;;;2.10;8.40;;;;;;7355623;19;20019;-66
2023/02/14 09:21:44;;;;;;;38.53;18.75;;;2.40;8.30;;;;;;7384369;19;20014;-66
2023/02/14 09:24:14;;;;;;;30.55;16.40;;;2.20;7.60;;;;;;7360616;19;20108;-69
2023/02/14 09:26:44;;;;;;;33.78;17.98;;;2.50;7.40;;;;;;7359240;19;20038;-68
2023/02/14 09:29:17;;;;;;;30.40;16.70;;;2.70;5.90;;;;;;7361580;19;20015;-68
2023/02/14 09:31:47;;;;;;;32.38;17.08;;;2.70;5.80;;;;;;7360870;19;20014;-69
2023/02/14 09:34:17;;;;;;;30.85;16.58;;;3.00;5.40;;;;;;7360189;19;20014;-68
2023/02/14 09:36:47;;;;;;;31.83;17.60;;;3.10;4.10;;;;;;7371133;19;20018;-68
2023/02/14 09:39:16;;;;;;;34.53;18.90;;;3.10;2.00;;;;;;7383238;19;20022;-65
2023/02/14 09:42:13;;;;;;;30.25;16.52;;;3.10;2.40;;;;;;7361213;19;20014;-67
2023/02/14 09:44:50;;;;;;;30.55;17.67;;;3.00;3.20;;;;;;7360419;19;20590;-69
2023/02/14 09:47:24;;;;;;;30.60;16.60;;;3.10;2.70;;;;;;7358280;19;20085;-69
2023/02/14 09:49:55;;;;;;;34.55;18.17;;;3.30;2.10;;;;;;7361858;19;20026;-70
2023/02/14 09:52:29;;;;;;;30.27;16.30;;;3.40;1.10;;;;;;7362342;19;20014;-68
2023/02/14 09:55:02;;;;;;;31.95;16.63;;;3.60;1.00;;;;;;7361445;19;20011;-68
2023/02/14 09:57:40;;;;;;;34.60;18.27;;;3.80;1.00;;;;;;7383614;19;20078;-69
2023/02/14 10:00:21;;;;;;;31.63;16.88;;;3.80;1.00;;;;;;7361365;19;20094;-69
2023/02/14 10:03:04;;;;;;;31.27;16.98;;;3.70;1.00;;;;;;7355258;19;20018;-69
2023/02/14 10:05:39;;;;;;;30.50;17.35;;;3.90;1.00;;;;;;7359409;19;20019;-69
2023/02/14 10:08:19;;;;;;;31.83;15.82;;;3.90;1.00;;;;;;7359390;19;20007;-68
2023/02/14 10:10:54;;;;;;;29.95;17.27;;;3.90;1.00;;;;;;7361321;19;20082;-69
2023/02/14 10:13:31;;;;;;;30.42;16.83;;;4.10;1.00;;;;;;7359494;19;20031;-68
2023/02/14 10:16:09;;;;;;;32.35;17.45;;;4.00;1.00;;;;;;7359204;19;20077;-68
2023/02/14 10:18:43;;;;;;;30.23;16.60;;;4.00;1.00;;;;;;7380336;19;20082;-70
2023/02/14 10:21:19;;;;;;;31.58;19.25;;;4.30;1.00;;;;;;7359726;19;20014;-69
2023/02/14 10:23:54;;;;;;;31.73;17.00;;;4.30;1.00;;;;;;7358218;19;20087;-70
2023/02/14 10:26:31;;;;;;;28.42;16.48;;;4.40;1.00;;;;;;7358912;19;20094;-70
2023/02/14 10:29:01;;;;;;;32.72;17.65;;;4.40;1.00;;;;;;7359467;19;20026;-70
2023/02/14 10:31:41;;;;;;;30.75;16.25;;;4.50;1.00;;;;;;7359384;19;20091;-69
2023/02/14 10:34:18;;;;;;;30.52;16.77;;;4.50;1.00;;;;;;7358419;19;20015;-69
2023/02/14 10:37:04;;;;;;;33.42;18.05;;;4.70;1.00;;;;;;7358845;19;20510;-70
2023/02/14 10:40:06;;;;;;;33.33;17.95;;;4.60;1.00;;;;;;7383039;19;20026;-67
2023/02/14 10:42:45;;;;;;;26.30;15.95;;;4.60;1.00;;;;;;7356989;19;20017;-68
2023/02/14 10:45:25;;;;;;;33.08;17.88;;;4.70;1.00;;;;;;7358512;19;20043;-69
2023/02/14 10:48:05;;;;;;;31.45;17.73;;;5.00;1.00;;;;;;7356880;19;20014;-69
2023/02/14 10:50:41;;;;;;;29.60;16.80;;;5.00;1.00;;;;;;7357333;19;20019;-70
2023/02/14 10:53:19;;;;;;;27.40;16.02;;;5.10;1.00;;;;;;7358907;19;20481;-70
2023/02/14 10:55:54;;;;;;;30.40;17.20;;;5.10;1.00;;;;;;7359047;19;20025;-70
2023/02/14 10:58:26;;;;;;;30.52;16.40;;;5.00;1.00;;;;;;7358008;19;20015;-70
2023/02/14 11:01:02;;;;;;;34.58;17.70;;;5.20;1.00;;;;;;7357351;19;20035;-69
2023/02/14 11:03:36;;;;;;;31.52;17.35;;;5.20;1.00;;;;;;7380216;19;20014;-68
2023/02/14 11:06:07;;;;;;;28.80;16.35;;;5.10;1.00;;;;;;7357247;19;20040;-70
2023/02/14 11:08:38;;;;;;;29.27;16.55;;;5.40;1.00;;;;;;7362638;19;20099;-69
2023/02/14 11:11:16;;;;;;;30.35;17.15;;;5.60;1.00;;;;;;7365113;19;20421;-68
2023/02/14 11:13:46;;;;;;;29.58;16.50;;;5.50;1.00;;;;;;7365057;19;20018;-69
2023/02/14 11:16:30;;;;;;;29.17;17.50;;;5.30;1.00;;;;;;7364545;19;20018;-69
2023/02/14 11:19:23;;;;;;;28.30;17.60;;;5.40;1.00;;;;;;7364471;19;20053;-68
2023/02/14 11:21:54;;;;;;;24.00;16.25;;;5.60;1.00;;;;;;7366265;19;20015;-70
2023/02/14 11:24:31;;;;;;;27.92;16.67;;;5.50;1.00;;;;;;7385284;19;20095;-67
2023/02/14 11:27:03;;;;;;;27.42;16.30;;;5.80;1.00;;;;;;7363782;19;20340;-69
2023/02/14 11:29:37;;;;;;;26.20;15.95;;;5.70;1.00;;;;;;7366206;19;20478;-69
2023/02/14 11:32:11;;;;;;;32.78;17.45;;;5.80;1.00;;;;;;7362358;19;20021;-68
2023/02/14 11:34:49;;;;;;;29.42;18.98;;;5.90;1.00;;;;;;7363596;19;20094;-69
2023/02/14 11:37:28;;;;;;;30.83;16.75;;;6.10;1.00;;;;;;7363161;19;20011;-69
2023/02/14 11:40:00;;;;;;;28.27;17.38;;;6.10;1.00;;;;;;7364180;19;20010;-69
2023/02/14 11:42:51;;;;;;;34.85;19.10;;;6.00;1.00;;;;;;7388330;19;20011;-69
2023/02/14 11:45:41;;;;;;;29.80;17.13;;;6.10;1.00;;;;;;7362655;19;20033;-69
2023/02/14 11:48:18;;;;;;;28.48;17.08;;;6.20;1.00;;;;;;7360563;19;20078;-69
2023/02/14 11:51:12;;;;;;;30.40;17.00;;;6.10;1.00;;;;;;7361059;19;20478;-69
2023/02/14 11:53:47;;;;;;;29.30;15.82;;;6.30;1.00;;;;;;7360175;19;20007;-70
2023/02/14 11:56:19;;;;;;;29.67;17.90;;;6.30;1.00;;;;;;7363962;19;20006;-69
2023/02/14 11:58:54;;;;;;;31.73;18.60;;;6.50;1.00;;;;;;7364202;19;20014;-70
2023/02/14 12:01:25;;;;;;;;;;;6.50;1.00;;;;;;7361727;19;20043;-69
2023/02/14 12:03:57;;;;;;;31.15;17.33;;;6.40;1.00;;;;;;7360930;19;19914;-68
2023/02/14 12:06:33;;;;;;;29.77;17.65;;;6.60;1.00;;;;;;7383086;19;20264;-69
2023/02/14 12:09:13;;;;;;;27.33;17.35;;;6.70;1.00;;;;;;7361274;19;20007;-68
2023/02/14 12:11:56;;;;;;;36.17;19.13;;;6.70;1.00;;;;;;7361450;19;20102;-68
2023/02/14 12:14:29;;;;;;;28.98;18.33;;;6.80;1.00;;;;;;7364648;19;20077;-68
2023/02/14 12:17:06;;;;;;;31.73;18.58;;;6.70;1.00;;;;;;7362935;19;20056;-68
2023/02/14 12:19:43;;;;;;;29.52;17.38;;;6.80;1.00;;;;;;7356131;19;20093;-67
2023/02/14 12:22:20;;;;;;;29.58;17.42;;;6.90;1.00;;;;;;7358500;19;20450;-69
2023/02/14 12:24:59;;;;;;;30.15;19.25;;;7.10;1.00;;;;;;7363251;19;20018;-68
2023/02/14 12:27:33;;;;;;;32.63;18.00;;;7.00;1.00;;;;;;7386271;19;20018;-69
2023/02/14 12:30:10;;;;;;;30.48;17.92;;;7.10;1.00;;;;;;7365042;19;20014;-69
2023/02/14 12:32:46;;;;;;;27.50;17.70;;;7.20;1.00;;;;;;7365375;19;20381;-69
2023/02/14 12:35:18;;;;;;;33.30;18.25;;;7.30;1.00;;;;;;7361535;19;20157;-69
2023/02/14 12:38:02;;;;;;;30.85;17.77;;;7.30;1.00;;;;;;7368431;19;20025;-69
2023/02/14 12:40:50;;;;;;;26.75;16.80;;;7.40;1.00;;;;;;7363102;19;20014;-68
2023/02/14 12:43:49;;;;;;;27.95;17.58;;;7.40;1.00;;;;;;7363700;19;20014;-68
2023/02/14 12:46:33;;;;;;;30.40;17.77;;;7.40;1.00;;;;;;7359033;19;20014;-68
2023/02/14 12:49:21;;;;;;;27.42;17.33;;;7.40;1.00;;;;;;7362184;19;20018;-68
2023/02/14 12:52:04;;;;;;;29.73;16.92;;;7.40;1.00;;;;;;7358022;19;20075;-72
2023/02/14 12:54:50;;;;;;;30.63;18.35;;;7.50;1.00;;;;;;7382165;19;20025;-68
2023/02/14 12:57:31;;;;;;;28.48;17.08;;;7.50;1.00;;;;;;7362462;19;20014;-67
2023/02/14 13:00:13;;;;;;;27.85;16.92;;;7.60;1.00;;;;;;7360945;19;20030;-69
2023/02/14 13:03:04;;;;;;;30.60;18.35;;;7.70;1.00;;;;;;7357492;19;20018;-69
2023/02/14 13:05:47;;;;;;;27.35;16.88;;;7.80;1.00;;;;;;7358306;19;20011;-69
2023/02/14 13:08:33;;;;;;;28.95;17.67;;;7.90;1.00;;;;;;7359443;19;20457;-68
2023/02/14 13:11:13;;;;;;;25.83;16.65;;;7.60;1.00;;;;;;7362266;19;20402;-69
2023/02/14 13:13:54;;;;;;;31.42;19.13;;;7.70;1.00;;;;;;7357795;19;20021;-68
2023/02/14 13:16:30;;;;;;;28.60;17.70;;;7.60;1.00;;;;;;7357239;19;20014;-68
2023/02/14 13:19:04;;;;;;;26.30;16.48;;;7.90;1.00;;;;;;7361808;19;20475;-67
2023/02/14 13:21:38;;;;;;;27.08;17.25;;;7.80;1.00;;;;;;7379765;19;20376;-68
2023/02/14 13:24:17;;;;;;;26.52;16.88;;;7.90;1.00;;;;;;7358579;19;20007;-69
2023/02/14 13:26:54;;;;;;;25.38;17.77;;;7.90;1.00;;;;;;7355556;19;20006;-68